createdAt,value
2018-01-18T00:01:15.987Z,2.70
2018-01-18T00:03:43.668Z,2.00
2018-01-18T00:06:11.279Z,2.43
2018-01-18T00:08:38.874Z,2.50
2018-01-18T00:11:06.989Z,2.50
2018-01-18T00:13:34.581Z,2.67
2018-01-18T00:16:02.166Z,2.20
2018-01-18T00:18:30.538Z,2.00
2018-01-18T00:20:58.201Z,2.47
2018-01-18T00:23:26.496Z,2.27
2018-01-18T00:25:54.896Z,1.97
2018-01-18T00:28:22.560Z,2.00
2018-01-18T00:30:50.244Z,2.60
2018-01-18T00:33:17.849Z,2.47
2018-01-18T00:35:45.425Z,2.50
2018-01-18T00:38:13.110Z,2.33
2018-01-18T00:40:40.797Z,2.30
2018-01-18T00:43:08.391Z,2.27
2018-01-18T00:45:36.001Z,2.20
2018-01-18T00:48:03.569Z,2.43
2018-01-18T00:50:31.177Z,2.07
2018-01-18T00:52:59.478Z,2.10
2018-01-18T00:55:27.038Z,1.70
2018-01-18T00:57:54.631Z,1.60
2018-01-18T01:00:22.230Z,1.93
2018-01-18T01:02:50.598Z,1.87
2018-01-18T01:05:18.236Z,2.73
2018-01-18T01:07:45.889Z,1.70
2018-01-18T01:10:13.497Z,1.90
2018-01-18T01:12:41.926Z,2.97
2018-01-18T01:15:09.525Z,2.43
2018-01-18T01:17:38.730Z,2.20
2018-01-18T01:20:06.439Z,1.93
2018-01-18T01:22:34.704Z,2.70
2018-01-18T01:25:02.274Z,2.37
2018-01-18T01:27:29.936Z,1.90
2018-01-18T01:29:57.573Z,2.40
2018-01-18T01:32:26.056Z,2.10
2018-01-18T01:34:54.410Z,1.93
2018-01-18T01:37:21.998Z,2.00
2018-01-18T01:39:49.607Z,2.43
2018-01-18T01:42:17.198Z,2.47
2018-01-18T01:44:44.756Z,2.17
2018-01-18T01:47:13.117Z,2.30
2018-01-18T01:49:41.452Z,2.20
2018-01-18T01:52:09.271Z,2.20
2018-01-18T01:54:37.733Z,2.30
2018-01-18T01:57:05.342Z,3.00
2018-01-18T01:59:33.006Z,2.40
2018-01-18T02:02:01.458Z,2.57
2018-01-18T02:04:29.128Z,2.53
2018-01-18T02:06:56.755Z,2.33
2018-01-18T02:09:24.279Z,2.47
2018-01-18T02:11:51.935Z,2.23
2018-01-18T02:14:19.535Z,2.60
2018-01-18T02:16:47.904Z,2.87
2018-01-18T02:19:16.047Z,2.80
2018-01-18T02:21:43.745Z,2.50
2018-01-18T02:24:11.609Z,2.53
2018-01-18T02:26:39.319Z,2.50
2018-01-18T02:29:08.615Z,2.70
2018-01-18T02:31:37.115Z,2.23
2018-01-18T02:34:05.059Z,3.10
2018-01-18T02:36:33.551Z,2.60
2018-01-18T02:39:01.975Z,2.60
2018-01-18T02:41:29.896Z,2.40
2018-01-18T02:43:57.635Z,2.53
2018-01-18T02:46:25.711Z,2.83
2018-01-18T02:48:53.295Z,2.87
2018-01-18T02:51:21.815Z,2.37
2018-01-18T02:53:49.717Z,2.73
2018-01-18T02:56:17.305Z,3.40
2018-01-18T02:58:45.781Z,2.83
2018-01-18T03:01:14.294Z,3.17
2018-01-18T03:03:41.978Z,2.83
2018-01-18T03:06:09.661Z,2.87
2018-01-18T03:08:38.536Z,3.10
2018-01-18T03:11:06.150Z,2.43
2018-01-18T03:13:33.916Z,3.50
2018-01-18T03:16:01.477Z,3.03
2018-01-18T03:18:29.099Z,3.67
2018-01-18T03:20:56.694Z,2.40
2018-01-18T03:23:25.076Z,2.60
2018-01-18T03:25:53.538Z,2.40
2018-01-18T03:28:21.105Z,2.87
2018-01-18T03:30:48.808Z,2.83
2018-01-18T03:33:16.473Z,2.70
2018-01-18T03:35:44.150Z,3.60
2018-01-18T03:38:11.831Z,3.87
2018-01-18T03:40:39.502Z,3.33
2018-01-18T03:43:07.240Z,3.53
2018-01-18T03:45:34.852Z,3.10
2018-01-18T03:48:02.543Z,2.73
2018-01-18T03:50:30.290Z,2.93
2018-01-18T03:52:58.067Z,3.23
2018-01-18T03:55:25.768Z,3.50
2018-01-18T03:57:53.328Z,2.93
2018-01-18T04:00:21.277Z,2.90
2018-01-18T04:02:49.654Z,2.93
2018-01-18T04:05:17.319Z,3.03
2018-01-18T04:07:44.897Z,3.10
2018-01-18T04:10:12.575Z,3.30
2018-01-18T04:12:41.153Z,3.40
2018-01-18T04:15:08.917Z,2.70
2018-01-18T04:17:36.535Z,4.23
2018-01-18T04:20:04.356Z,3.37
2018-01-18T04:22:32.024Z,3.07
2018-01-18T04:25:00.380Z,3.00
2018-01-18T04:27:28.016Z,3.27
2018-01-18T04:29:55.618Z,3.40
2018-01-18T04:32:23.192Z,2.87
2018-01-18T04:34:50.850Z,3.63
2018-01-18T04:37:18.591Z,2.80
2018-01-18T04:39:46.150Z,3.40
2018-01-18T04:42:13.822Z,2.83
2018-01-18T04:44:41.383Z,3.27
2018-01-18T04:47:08.979Z,2.50
2018-01-18T04:49:37.695Z,2.50
2018-01-18T04:52:05.360Z,2.40
2018-01-18T04:54:33.042Z,3.23
2018-01-18T04:57:00.672Z,3.23
2018-01-18T04:59:28.258Z,3.53
2018-01-18T05:01:55.882Z,2.70
2018-01-18T05:04:23.514Z,2.90
2018-01-18T05:06:51.178Z,2.90
2018-01-18T05:09:18.742Z,2.80
2018-01-18T05:11:47.149Z,3.10
2018-01-18T05:14:14.711Z,3.17
2018-01-18T05:16:42.330Z,2.10
2018-01-18T05:19:09.974Z,3.03
2018-01-18T05:21:37.536Z,2.30
2018-01-18T05:24:05.280Z,2.60
2018-01-18T05:26:32.969Z,2.57
2018-01-18T05:29:01.386Z,2.50
2018-01-18T05:31:29.696Z,2.10
2018-01-18T05:33:57.294Z,3.10
2018-01-18T05:36:24.928Z,3.20
2018-01-18T05:38:52.614Z,2.47
2018-01-18T05:41:20.175Z,3.10
2018-01-18T05:43:47.857Z,2.37
2018-01-18T05:46:16.286Z,3.20
2018-01-18T05:48:43.880Z,2.27
2018-01-18T05:51:13.048Z,3.33
2018-01-18T05:53:40.658Z,2.60
2018-01-18T05:56:09.021Z,2.43
2018-01-18T05:58:36.626Z,3.10
2018-01-18T06:01:04.699Z,2.10
2018-01-18T06:03:32.363Z,2.80
2018-01-18T06:05:59.959Z,3.10
2018-01-18T06:08:27.561Z,3.13
2018-01-18T06:10:55.867Z,2.80
2018-01-18T06:13:23.584Z,3.00
2018-01-18T06:15:51.300Z,3.00
2018-01-18T06:18:18.891Z,2.97
2018-01-18T06:20:46.557Z,3.13
2018-01-18T06:23:14.519Z,2.70
2018-01-18T06:25:42.296Z,2.60
2018-01-18T06:28:10.739Z,3.27
2018-01-18T06:30:38.362Z,3.07
2018-01-18T06:33:06.711Z,3.03
2018-01-18T06:35:34.254Z,3.53
2018-01-18T06:38:01.835Z,3.33
2018-01-18T06:40:29.435Z,3.23
2018-01-18T06:42:57.005Z,3.10
2018-01-18T06:45:24.770Z,2.80
2018-01-18T06:47:52.390Z,3.20
2018-01-18T06:50:20.115Z,2.70
2018-01-18T06:52:47.812Z,2.67
2018-01-18T06:55:16.278Z,3.10
2018-01-18T06:57:43.878Z,3.10
2018-01-18T07:00:12.275Z,4.13
2018-01-18T07:02:40.623Z,3.37
2018-01-18T07:05:09.108Z,3.13
2018-01-18T07:07:37.466Z,3.13
2018-01-18T07:10:05.316Z,3.40
2018-01-18T07:12:33.054Z,3.60
2018-01-18T07:15:00.635Z,3.53
2018-01-18T07:17:28.264Z,2.73
2018-01-18T07:19:55.945Z,2.70
2018-01-18T07:22:23.572Z,2.90
2018-01-18T07:24:52.616Z,2.60
2018-01-18T07:27:20.187Z,3.17
2018-01-18T07:29:48.719Z,2.70
2018-01-18T07:32:16.280Z,2.83
2018-01-18T07:34:43.989Z,2.23
2018-01-18T07:37:12.243Z,2.13
2018-01-18T07:39:39.814Z,2.17
2018-01-18T07:42:08.219Z,6.00
2018-01-18T07:44:35.919Z,2.90
2018-01-18T07:47:03.539Z,4.00
2018-01-18T07:49:31.106Z,1.83
2018-01-18T07:51:58.701Z,1.70
2018-01-18T07:54:26.386Z,2.40
2018-01-18T07:56:59.723Z,2.03
2018-01-18T07:59:27.327Z,2.67
2018-01-18T08:01:54.940Z,2.40
2018-01-18T08:04:26.249Z,2.10
2018-01-18T08:06:53.909Z,3.30
2018-01-18T08:09:21.526Z,3.30
2018-01-18T08:11:50.063Z,2.80
2018-01-18T08:14:17.621Z,3.47
2018-01-18T08:16:45.280Z,2.30
2018-01-18T08:19:12.897Z,2.30
2018-01-18T08:21:40.489Z,2.10
2018-01-18T08:24:08.139Z,3.00
2018-01-18T08:26:35.824Z,2.43
2018-01-18T08:29:03.426Z,2.23
2018-01-18T08:31:31.068Z,1.97
2018-01-18T08:33:59.412Z,2.67
2018-01-18T08:36:26.993Z,2.50
2018-01-18T08:38:54.577Z,2.13
2018-01-18T08:41:22.174Z,2.37
2018-01-18T08:43:49.738Z,2.57
2018-01-18T08:46:18.115Z,1.70
2018-01-18T08:48:46.440Z,2.47
2018-01-18T08:51:14.062Z,3.27
2018-01-18T08:53:42.466Z,2.50
2018-01-18T08:56:10.040Z,2.07
2018-01-18T08:58:37.811Z,2.10
2018-01-18T09:01:05.348Z,3.33
2018-01-18T09:03:33.076Z,2.90
2018-01-18T09:06:01.509Z,2.10
2018-01-18T09:08:29.819Z,2.30
2018-01-18T09:10:57.456Z,2.63
2018-01-18T09:13:25.107Z,2.20
2018-01-18T09:15:52.686Z,2.20
2018-01-18T09:18:20.292Z,2.10
2018-01-18T09:20:48.025Z,2.50
2018-01-18T09:23:15.948Z,2.10
2018-01-18T09:25:43.680Z,2.10
2018-01-18T09:28:11.984Z,1.63
2018-01-18T09:30:39.724Z,2.43
2018-01-18T09:33:07.416Z,2.10
2018-01-18T09:35:35.025Z,2.13
2018-01-18T09:38:02.684Z,1.60
2018-01-18T09:40:30.323Z,1.97
2018-01-18T09:42:58.680Z,2.10
2018-01-18T09:45:26.324Z,2.50
2018-01-18T09:47:53.969Z,2.10
2018-01-18T09:50:22.363Z,2.20
2018-01-18T09:52:49.983Z,2.17
2018-01-18T09:55:17.606Z,2.70
2018-01-18T09:57:45.197Z,2.40
2018-01-18T10:00:12.802Z,2.30
2018-01-18T10:02:40.437Z,2.63
2018-01-18T10:05:08.094Z,2.60
2018-01-18T10:07:35.828Z,2.40
2018-01-18T10:10:03.495Z,2.67
2018-01-18T10:12:31.058Z,1.90
2018-01-18T10:14:58.649Z,2.20
2018-01-18T10:17:26.208Z,2.17
2018-01-18T10:19:53.757Z,1.80
2018-01-18T10:22:21.498Z,2.10
2018-01-18T10:24:49.110Z,1.93
2018-01-18T10:27:17.455Z,1.83
2018-01-18T10:29:45.072Z,2.30
2018-01-18T10:32:12.696Z,4.40
2018-01-18T10:34:40.455Z,1.90
2018-01-18T10:37:08.110Z,1.30
2018-01-18T10:39:35.761Z,2.00
2018-01-18T10:42:03.512Z,1.30
2018-01-18T10:44:31.105Z,1.67
2018-01-18T10:46:58.732Z,1.53
2018-01-18T10:49:26.299Z,1.10
2018-01-18T10:51:56.237Z,1.20
2018-01-18T10:54:23.795Z,1.87
2018-01-18T10:56:51.928Z,1.43
2018-01-18T10:59:19.481Z,1.13
2018-01-18T11:01:47.154Z,1.70
2018-01-18T11:04:15.198Z,1.40
2018-01-18T11:06:42.777Z,1.37
2018-01-18T11:09:10.379Z,2.13
2018-01-18T11:11:38.839Z,1.47
2018-01-18T11:14:07.154Z,1.00
2018-01-18T11:16:34.745Z,1.20
2018-01-18T11:19:02.328Z,1.17
2018-01-18T11:21:30.726Z,1.30
2018-01-18T11:23:58.293Z,1.40
2018-01-18T11:26:25.963Z,1.70
2018-01-18T11:28:53.519Z,1.10
2018-01-18T11:31:21.140Z,1.27
2018-01-18T11:33:48.666Z,1.47
2018-01-18T11:36:17.943Z,1.70
2018-01-18T11:38:46.678Z,1.27
2018-01-18T11:41:17.630Z,1.10
2018-01-18T11:43:45.957Z,1.00
2018-01-18T11:46:15.600Z,1.30
2018-01-18T11:48:43.300Z,1.40
2018-01-18T11:51:10.843Z,1.23
2018-01-18T11:53:38.458Z,1.33
2018-01-18T11:56:06.085Z,1.20
2018-01-18T11:58:34.493Z,1.23
2018-01-18T12:01:05.599Z,1.43
2018-01-18T12:03:33.186Z,1.00
2018-01-18T12:06:00.893Z,1.03
2018-01-18T12:08:28.495Z,1.77
2018-01-18T12:10:56.195Z,1.23
2018-01-18T12:13:24.608Z,1.70
2018-01-18T12:15:52.191Z,1.00
2018-01-18T12:18:20.363Z,1.33
2018-01-18T12:20:48.641Z,1.50
2018-01-18T12:23:16.421Z,1.50
2018-01-18T12:25:44.020Z,1.30
2018-01-18T12:28:12.468Z,1.47
2018-01-18T12:30:40.056Z,2.50
2018-01-18T12:33:07.637Z,1.80
2018-01-18T12:35:35.261Z,1.60
2018-01-18T12:38:02.913Z,1.50
2018-01-18T12:40:31.230Z,2.33
2018-01-18T12:42:58.834Z,1.70
2018-01-18T12:45:26.390Z,1.20
2018-01-18T12:47:53.988Z,1.23
2018-01-18T12:50:21.756Z,1.23
2018-01-18T12:52:49.531Z,1.00
2018-01-18T12:55:18.366Z,0.97
2018-01-18T12:57:46.450Z,1.23
2018-01-18T13:00:15.072Z,0.87
2018-01-18T13:02:43.349Z,1.13
2018-01-18T13:05:11.518Z,1.30
2018-01-18T13:07:39.928Z,1.07
2018-01-18T13:10:08.722Z,1.20
2018-01-18T13:12:36.271Z,3.33
2018-01-18T13:15:03.964Z,1.10
2018-01-18T13:17:31.514Z,1.27
2018-01-18T13:19:59.099Z,1.30
2018-01-18T13:22:26.683Z,1.10
2018-01-18T13:24:55.056Z,1.43
2018-01-18T13:27:23.460Z,1.57
2018-01-18T13:29:51.062Z,1.00
2018-01-18T13:32:19.158Z,1.27
2018-01-18T13:34:46.727Z,1.97
2018-01-18T13:37:14.294Z,2.20
2018-01-18T13:39:41.879Z,1.40
2018-01-18T13:42:09.444Z,1.53
2018-01-18T13:44:37.079Z,1.90
2018-01-18T13:47:06.305Z,1.50
2018-01-18T13:49:34.555Z,1.50
2018-01-18T13:52:02.870Z,1.70
2018-01-18T13:54:31.256Z,2.43
2018-01-18T13:56:58.844Z,2.10
2018-01-18T13:59:27.650Z,1.93
2018-01-18T14:01:55.436Z,1.67
2018-01-18T14:04:23.771Z,1.47
2018-01-18T14:06:52.445Z,1.40
2018-01-18T14:09:20.036Z,1.67
2018-01-18T14:11:48.675Z,1.73
2018-01-18T14:14:16.240Z,1.90
2018-01-18T14:16:43.871Z,1.90
2018-01-18T14:19:12.885Z,1.60
2018-01-18T14:21:40.513Z,1.93
2018-01-18T14:24:08.890Z,1.70
2018-01-18T14:26:36.486Z,1.23
2018-01-18T14:29:04.695Z,1.20
2018-01-18T14:31:32.344Z,2.03
2018-01-18T14:34:00.104Z,1.60
2018-01-18T14:36:27.768Z,1.73
2018-01-18T14:38:55.935Z,1.47
2018-01-18T14:41:23.509Z,1.53
2018-01-18T14:43:51.139Z,1.07
2018-01-18T14:46:18.770Z,1.47
2018-01-18T14:48:47.193Z,1.53
2018-01-18T14:51:15.156Z,1.47
2018-01-18T14:53:43.599Z,1.20
2018-01-18T14:56:11.938Z,1.37
2018-01-18T14:58:39.518Z,1.30
2018-01-18T15:01:07.238Z,1.70
2018-01-18T15:03:35.109Z,1.57
2018-01-18T15:06:02.641Z,1.53
2018-01-18T15:08:31.147Z,2.10
2018-01-18T15:10:58.754Z,3.90
2018-01-18T15:13:26.735Z,4.80
2018-01-18T15:15:55.106Z,4.37
2018-01-18T15:18:23.514Z,4.00
2018-01-18T15:20:51.836Z,3.00
2018-01-18T15:23:19.417Z,2.73
2018-01-18T15:25:47.018Z,2.30
2018-01-18T15:28:15.379Z,1.77
2018-01-18T15:30:43.710Z,2.20
2018-01-18T15:33:11.300Z,1.70
2018-01-18T15:35:38.886Z,1.63
2018-01-18T15:38:06.441Z,1.93
2018-01-18T15:40:34.023Z,1.60
2018-01-18T15:43:01.614Z,1.73
2018-01-18T15:45:29.244Z,2.10
2018-01-18T15:47:56.832Z,1.30
2018-01-18T15:50:25.165Z,1.80
2018-01-18T15:52:52.778Z,1.10
2018-01-18T15:55:20.438Z,1.70
2018-01-18T15:57:48.082Z,1.70
2018-01-18T16:00:15.655Z,1.67
2018-01-18T16:02:43.227Z,1.67
2018-01-18T16:05:10.828Z,1.33
2018-01-18T16:07:39.525Z,1.40
2018-01-18T16:10:07.951Z,1.40
2018-01-18T16:12:35.507Z,1.47
2018-01-18T16:15:03.243Z,1.80
2018-01-18T16:17:30.787Z,1.77
2018-01-18T16:19:58.443Z,1.70
2018-01-18T16:22:26.252Z,2.13
2018-01-18T16:24:53.776Z,1.90
2018-01-18T16:27:21.403Z,1.70
2018-01-18T16:29:49.039Z,2.20
2018-01-18T16:32:16.694Z,2.47
2018-01-18T16:34:44.229Z,1.90
2018-01-18T16:37:11.814Z,2.70
2018-01-18T16:39:39.436Z,2.43
2018-01-18T16:42:07.023Z,2.30
2018-01-18T16:44:35.248Z,2.30
2018-01-18T16:47:02.810Z,2.43
2018-01-18T16:49:30.371Z,2.10
2018-01-18T16:51:58.833Z,2.07
2018-01-18T16:54:26.406Z,2.60
2018-01-18T16:56:53.972Z,2.17
2018-01-18T16:59:21.532Z,2.70
2018-01-18T17:01:49.107Z,2.37
2018-01-18T17:04:17.477Z,2.73
2018-01-18T17:06:45.126Z,3.13
2018-01-18T17:09:12.704Z,3.60
2018-01-18T17:11:40.282Z,3.60
2018-01-18T17:14:07.894Z,2.73
2018-01-18T17:16:35.499Z,3.30
2018-01-18T17:19:04.792Z,3.03
2018-01-18T17:21:34.094Z,2.90
2018-01-18T17:24:02.379Z,2.80
2018-01-18T17:26:29.962Z,3.10
2018-01-18T17:28:57.554Z,2.90
2018-01-18T17:31:25.155Z,3.20
2018-01-18T17:33:53.469Z,3.50
2018-01-18T17:36:21.124Z,3.33
2018-01-18T17:38:48.776Z,2.83
2018-01-18T17:41:16.338Z,2.77
2018-01-18T17:43:43.898Z,3.53
2018-01-18T17:46:11.457Z,3.00
2018-01-18T17:48:38.995Z,3.27
2018-01-18T17:51:07.311Z,3.47
2018-01-18T18:06:29.930Z,3.70
2018-01-18T18:08:57.512Z,3.03
2018-01-18T18:11:25.200Z,2.07
2018-01-18T18:13:52.846Z,2.70
2018-01-18T18:16:20.796Z,2.87
2018-01-18T18:18:49.734Z,2.63
2018-01-18T18:21:18.047Z,2.10
2018-01-18T18:23:45.649Z,2.47
2018-01-18T18:26:13.160Z,2.80
2018-01-18T18:28:40.770Z,3.30
2018-01-18T18:31:08.296Z,2.80
2018-01-18T18:33:35.887Z,2.40
2018-01-18T18:36:04.194Z,1.57
2018-01-18T18:38:32.838Z,1.40
2018-01-18T18:41:01.348Z,1.50
2018-01-18T18:43:29.731Z,1.07
2018-01-18T18:45:57.342Z,1.10
2018-01-18T18:48:24.922Z,1.60
2018-01-18T18:50:52.528Z,1.77
2018-01-18T18:53:20.872Z,1.50
2018-01-18T18:55:48.428Z,2.13
2018-01-18T18:58:16.085Z,2.20
2018-01-18T19:00:43.753Z,1.40
2018-01-18T19:03:11.298Z,1.37
2018-01-18T19:05:38.860Z,1.43
2018-01-18T19:08:06.403Z,1.43
2018-01-18T19:10:33.996Z,1.27
2018-01-18T19:13:01.558Z,1.43
2018-01-18T19:15:29.135Z,1.30
2018-01-18T19:17:57.835Z,1.50
2018-01-18T19:20:26.216Z,0.90
2018-01-18T19:22:53.874Z,1.07
2018-01-18T19:25:21.421Z,1.07
2018-01-18T19:27:49.035Z,1.40
2018-01-18T19:30:17.412Z,1.27
2018-01-18T19:32:45.842Z,0.90
2018-01-18T19:35:13.437Z,1.40
2018-01-18T19:37:41.049Z,0.80
2018-01-18T19:40:09.335Z,0.90
2018-01-18T19:42:36.911Z,1.00
2018-01-18T19:45:05.439Z,1.40
2018-01-18T19:47:33.475Z,1.00
2018-01-18T19:50:01.830Z,1.43
2018-01-18T19:52:29.501Z,1.13
2018-01-18T19:54:57.071Z,0.97
2018-01-18T19:57:25.498Z,0.80
2018-01-18T19:59:53.154Z,0.80
2018-01-18T20:02:20.733Z,0.80
2018-01-18T20:04:48.370Z,0.67
2018-01-18T20:07:16.877Z,0.80
2018-01-18T20:09:44.465Z,0.83
2018-01-18T20:12:12.071Z,0.97
2018-01-18T20:14:39.658Z,0.90
2018-01-18T20:17:08.030Z,1.10
2018-01-18T20:19:35.632Z,1.07
2018-01-18T20:22:03.251Z,1.23
2018-01-18T20:24:30.855Z,0.97
2018-01-18T20:26:59.219Z,1.13
2018-01-18T20:29:26.804Z,0.90
2018-01-18T20:31:55.197Z,1.20
2018-01-18T20:34:23.197Z,0.97
2018-01-18T20:36:50.796Z,1.47
2018-01-18T20:39:18.327Z,1.23
2018-01-18T20:41:45.915Z,1.00
2018-01-18T20:44:13.459Z,1.03
2018-01-18T20:46:41.150Z,1.20
2018-01-18T20:49:21.549Z,0.90
2018-01-18T20:54:41.896Z,1.03
2018-01-18T20:57:09.531Z,0.80
2018-01-18T20:59:37.080Z,1.00
2018-01-18T21:02:04.743Z,0.90
2018-01-18T21:04:32.325Z,1.00
2018-01-18T21:07:00.683Z,0.70
2018-01-18T21:09:28.322Z,0.97
2018-01-18T21:11:55.867Z,0.90
2018-01-18T21:14:24.224Z,1.03
2018-01-18T21:16:51.872Z,0.60
2018-01-18T21:19:19.437Z,0.80
2018-01-18T21:21:47.863Z,0.73
2018-01-18T21:24:15.521Z,0.90
2018-01-18T21:26:43.097Z,0.67
2018-01-18T21:29:10.643Z,1.00
2018-01-18T21:31:38.204Z,1.10
2018-01-18T21:34:05.738Z,0.80
2018-01-18T21:36:34.185Z,0.90
2018-01-18T21:39:02.583Z,1.27
2018-01-18T21:41:30.165Z,1.10
2018-01-18T21:43:59.179Z,1.40
2018-01-18T21:59:22.532Z,1.57
2018-01-18T22:01:50.107Z,1.30
2018-01-18T22:04:17.656Z,1.20
2018-01-18T22:06:45.226Z,1.63
2018-01-18T22:09:12.807Z,1.70
2018-01-18T22:11:40.475Z,1.47
2018-01-18T22:14:08.023Z,1.80
2018-01-18T22:16:36.350Z,1.70
2018-01-18T22:19:03.909Z,1.67
2018-01-18T22:21:32.791Z,1.33
2018-01-18T22:24:00.351Z,1.40
2018-01-18T22:26:27.929Z,1.30
2018-01-18T22:28:55.585Z,1.67
2018-01-18T22:31:23.930Z,1.47
2018-01-18T22:33:52.279Z,1.97
2018-01-18T22:36:19.844Z,1.73
2018-01-18T22:38:47.427Z,1.70
2018-01-18T22:41:15.153Z,1.53
2018-01-18T22:43:42.694Z,1.00
2018-01-18T22:46:10.959Z,1.77
2018-01-18T22:48:39.302Z,1.30
2018-01-18T22:51:07.070Z,1.20
2018-01-18T22:53:34.753Z,1.20
2018-01-18T22:56:02.323Z,1.03
2018-01-18T22:58:29.949Z,0.83
2018-01-18T23:00:57.576Z,1.00
2018-01-18T23:03:25.276Z,1.57
2018-01-18T23:05:52.834Z,1.17
2018-01-18T23:08:21.567Z,1.27
2018-01-18T23:10:49.173Z,0.83
2018-01-18T23:13:16.746Z,1.20
2018-01-18T23:15:45.187Z,1.33
2018-01-18T23:18:12.787Z,1.00
2018-01-18T23:20:40.362Z,1.23
2018-01-18T23:23:07.987Z,1.10
2018-01-18T23:25:35.569Z,1.20
2018-01-18T23:28:03.195Z,0.90
2018-01-18T23:30:30.808Z,0.80
2018-01-18T23:32:59.198Z,0.90
2018-01-18T23:35:26.768Z,0.70
2018-01-18T23:37:54.379Z,1.00
2018-01-18T23:40:21.933Z,0.93
2018-01-18T23:42:49.527Z,0.90
2018-01-18T23:45:17.130Z,1.07
2018-01-18T23:47:44.699Z,0.93
2018-01-18T23:50:12.335Z,0.90
2018-01-18T23:52:40.460Z,0.80
2018-01-18T23:55:09.576Z,0.80
2018-01-18T23:57:37.911Z,1.03
